Time;durP1;ratioP1;P1;durP2;ratioP2;P2;SDS_P1;SDS_P2;PMS_P1;PMS_P2;Temp;Humidity;BMP_temperature;BMP_pressure;BME280_temperature;BME280_humidity;BME280_pressure;Samples;Min_cycle;Max_cycle;Signal;HPM_P1;HPM_P2
2023/10/24 00:01:35;;;;;;;7.70;3.65;;;13.40;99.90;;;;;;5035540;28;20038;-74
2023/10/24 00:04:00;;;;;;;6.28;3.55;;;13.40;99.90;;;;;;5037263;28;20026;-74
2023/10/24 00:06:26;;;;;;;7.40;4.32;;;13.50;99.90;;;;;;5035184;28;20036;-74
2023/10/24 00:08:52;;;;;;;8.77;4.03;;;13.50;99.90;;;;;;5035310;28;20057;-74
2023/10/24 00:11:17;;;;;;;6.20;3.45;;;13.50;99.90;;;;;;5036948;28;20037;-74
2023/10/24 00:13:43;;;;;;;10.52;4.00;;;13.50;99.90;;;;;;5036726;28;20033;-74
2023/10/24 00:16:08;;;;;;;6.45;4.10;;;13.50;99.90;;;;;;5036872;28;20029;-74
2023/10/24 00:18:34;;;;;;;5.47;3.65;;;13.50;99.90;;;;;;5036616;28;20111;-74
2023/10/24 00:21:00;;;;;;;11.20;4.28;;;13.50;99.90;;;;;;5036731;28;20045;-74
2023/10/24 00:23:29;;;;;;;7.13;4.30;;;13.50;99.90;;;;;;5036398;28;20087;-74
2023/10/24 00:25:54;;;;;;;8.65;4.30;;;13.50;99.90;;;;;;5036537;28;20029;-74
2023/10/24 00:28:20;;;;;;;6.28;3.58;;;13.50;99.90;;;;;;5036382;28;20543;-74
2023/10/24 00:30:46;;;;;;;7.25;4.30;;;13.60;99.90;;;;;;5035213;28;20133;-75
2023/10/24 00:33:11;;;;;;;7.93;4.57;;;13.60;99.90;;;;;;5036251;28;20083;-74
2023/10/24 00:35:37;;;;;;;7.28;4.72;;;13.60;99.90;;;;;;5035979;28;20034;-74
2023/10/24 00:38:02;;;;;;;8.93;4.65;;;13.60;99.90;;;;;;5036295;28;20315;-74
2023/10/24 00:40:28;;;;;;;8.98;4.65;;;13.60;99.90;;;;;;5034674;28;20103;-75
2023/10/24 00:42:54;;;;;;;6.22;4.40;;;13.60;99.90;;;;;;5034970;28;20052;-74
2023/10/24 00:45:19;;;;;;;9.88;5.00;;;13.60;99.90;;;;;;5036128;28;20030;-75
2023/10/24 00:47:45;;;;;;;11.20;4.70;;;13.60;99.90;;;;;;5035049;28;20033;-73
2023/10/24 00:50:12;;;;;;;8.98;4.60;;;13.60;99.90;;;;;;5035189;28;20041;-74
2023/10/24 00:52:39;;;;;;;8.00;5.25;;;13.70;99.90;;;;;;5036048;28;20022;-74
2023/10/24 00:55:07;;;;;;;8.43;4.55;;;13.60;99.90;;;;;;5018457;28;20029;-75
2023/10/24 00:57:33;;;;;;;5.22;4.05;;;13.50;99.90;;;;;;5034873;28;20033;-73
2023/10/24 01:00:00;;;;;;;6.03;4.50;;;13.60;99.90;;;;;;5034590;28;20485;-74
2023/10/24 01:02:26;;;;;;;8.73;4.72;;;13.60;99.90;;;;;;5035994;28;20156;-74
2023/10/24 01:04:54;;;;;;;7.50;4.40;;;13.60;99.90;;;;;;5035242;28;20465;-74
2023/10/24 01:07:20;;;;;;;6.95;5.03;;;13.60;99.90;;;;;;5035421;28;20626;-73
2023/10/24 01:09:46;;;;;;;6.88;4.30;;;13.60;99.90;;;;;;5035609;28;20477;-73
2023/10/24 01:12:11;;;;;;;6.80;5.10;;;13.70;99.90;;;;;;5035736;28;20037;-73
2023/10/24 01:14:38;;;;;;;8.18;5.03;;;13.80;99.90;;;;;;5035635;28;20041;-74
2023/10/24 01:17:14;;;;;;;7.18;5.13;;;13.80;99.90;;;;;;5035397;28;20036;-73
2023/10/24 01:19:40;;;;;;;6.47;5.10;;;13.90;99.90;;;;;;5035830;28;20027;-74
2023/10/24 01:22:05;;;;;;;7.32;4.65;;;13.90;99.90;;;;;;5034135;28;20144;-73
2023/10/24 01:24:31;;;;;;;7.80;5.65;;;13.90;99.90;;;;;;5035704;28;20033;-74
2023/10/24 01:26:57;;;;;;;10.05;6.40;;;13.90;99.90;;;;;;5035202;28;20034;-74
2023/10/24 01:29:23;;;;;;;10.25;6.20;;;13.90;99.90;;;;;;5035235;28;20036;-74
2023/10/24 01:31:49;;;;;;;8.20;5.25;;;14.00;99.90;;;;;;5034279;28;20064;-74
2023/10/24 01:34:15;;;;;;;9.48;5.28;;;14.00;99.90;;;;;;5035286;28;20477;-74
2023/10/24 01:36:40;;;;;;;11.93;6.07;;;14.00;99.90;;;;;;5034983;28;20359;-74
2023/10/24 01:39:07;;;;;;;7.18;5.50;;;14.10;99.90;;;;;;5033565;28;20058;-74
2023/10/24 01:41:33;;;;;;;12.10;6.07;;;14.10;99.90;;;;;;5035112;28;20034;-74
2023/10/24 01:43:59;;;;;;;7.90;5.80;;;14.10;99.90;;;;;;5035259;28;20030;-75
2023/10/24 01:46:24;;;;;;;7.63;6.53;;;14.10;99.90;;;;;;5035310;28;20587;-73
2023/10/24 01:48:50;;;;;;;8.70;6.07;;;14.10;99.90;;;;;;5034728;28;20081;-73
2023/10/24 01:51:16;;;;;;;8.65;5.55;;;14.10;99.90;;;;;;5033763;28;20044;-73
2023/10/24 01:53:41;;;;;;;9.88;5.78;;;14.00;99.90;;;;;;5033473;28;20029;-74
2023/10/24 01:56:10;;;;;;;8.52;5.53;;;14.10;99.90;;;;;;5034670;28;20040;-73
2023/10/24 01:58:36;;;;;;;8.75;5.80;;;14.10;99.90;;;;;;5034572;28;20026;-73
2023/10/24 02:01:02;;;;;;;10.52;5.80;;;14.10;99.90;;;;;;5034800;28;20121;-73
2023/10/24 02:03:28;;;;;;;7.60;5.18;;;14.00;99.90;;;;;;5034868;28;20075;-74
2023/10/24 02:05:54;;;;;;;7.10;5.32;;;14.10;99.90;;;;;;5016882;28;20547;-73
2023/10/24 02:08:19;;;;;;;9.00;5.30;;;14.00;99.90;;;;;;5034961;28;20462;-73
2023/10/24 02:10:45;;;;;;;8.13;4.72;;;14.00;99.90;;;;;;5034022;28;20033;-73
2023/10/24 02:13:10;;;;;;;8.32;5.20;;;14.00;99.90;;;;;;5034890;28;20033;-74
2023/10/24 02:15:39;;;;;;;10.65;4.63;;;14.00;99.90;;;;;;5034368;28;20029;-74
2023/10/24 02:18:05;;;;;;;7.32;4.75;;;14.10;99.90;;;;;;5033472;28;20029;-73
2023/10/24 02:20:30;;;;;;;7.28;4.43;;;14.10;99.90;;;;;;5034139;28;20068;-75
2023/10/24 02:22:56;;;;;;;8.68;4.80;;;14.10;99.90;;;;;;5034554;28;20026;-74
2023/10/24 02:25:21;;;;;;;9.90;4.60;;;13.90;99.90;;;;;;5034368;28;20025;-74
2023/10/24 02:27:47;;;;;;;5.88;3.78;;;14.00;99.90;;;;;;5033111;28;20033;-75
2023/10/24 02:30:13;;;;;;;5.40;3.92;;;14.00;99.90;;;;;;5034250;28;20476;-75
2023/10/24 02:32:38;;;;;;;4.90;3.60;;;13.90;99.90;;;;;;5034290;28;20036;-74
2023/10/24 02:35:04;;;;;;;6.53;3.60;;;13.90;99.90;;;;;;5033522;28;20116;-74
2023/10/24 02:37:30;;;;;;;7.95;3.40;;;13.90;99.90;;;;;;5034272;28;20099;-74
2023/10/24 02:39:56;;;;;;;3.72;2.83;;;13.90;99.90;;;;;;5032686;28;20053;-74
2023/10/24 02:42:21;;;;;;;7.45;3.40;;;14.00;99.90;;;;;;5032697;28;20037;-74
2023/10/24 02:44:50;;;;;;;3.70;2.80;;;14.00;99.90;;;;;;5033851;28;20025;-74
2023/10/24 02:47:16;;;;;;;5.85;3.20;;;14.00;99.90;;;;;;5034177;28;20026;-74
2023/10/24 02:49:42;;;;;;;3.78;2.58;;;13.90;99.90;;;;;;5033769;28;20040;-74
2023/10/24 02:52:07;;;;;;;4.35;2.75;;;13.90;99.90;;;;;;5016076;28;20033;-74
2023/10/24 02:54:33;;;;;;;4.50;2.55;;;13.80;99.90;;;;;;5032428;28;20136;-74
2023/10/24 02:56:59;;;;;;;5.18;2.10;;;13.80;99.90;;;;;;5033966;28;20036;-74
2023/10/24 02:59:25;;;;;;;8.02;3.03;;;13.80;99.90;;;;;;5033528;28;20465;-74
2023/10/24 03:01:50;;;;;;;4.03;2.30;;;13.80;99.90;;;;;;5033442;28;20473;-74
2023/10/24 03:04:16;;;;;;;4.43;2.88;;;13.80;99.90;;;;;;5033585;28;20029;-76
2023/10/24 03:06:41;;;;;;;4.03;2.78;;;13.80;99.90;;;;;;5015691;28;20030;-74
2023/10/24 03:09:07;;;;;;;4.78;2.63;;;13.80;99.90;;;;;;5031950;28;20033;-74
2023/10/24 03:11:33;;;;;;;4.78;2.50;;;13.80;99.90;;;;;;5033622;28;20444;-74
2023/10/24 03:13:59;;;;;;;2.67;2.13;;;13.80;99.90;;;;;;5033656;28;20022;-74
2023/10/24 03:16:25;;;;;;;3.60;2.65;;;13.80;99.90;;;;;;5033097;28;20128;-74
2023/10/24 03:18:51;;;;;;;4.22;3.25;;;13.80;99.90;;;;;;5033143;28;20041;-74
2023/10/24 03:21:16;;;;;;;6.70;2.90;;;13.80;99.90;;;;;;5033086;28;20079;-74
2023/10/24 03:23:44;;;;;;;6.50;3.63;;;13.80;99.90;;;;;;5032711;28;20033;-74
2023/10/24 03:26:10;;;;;;;5.35;4.28;;;13.80;99.90;;;;;;5033346;28;20072;-75
2023/10/24 03:28:36;;;;;;;6.65;3.80;;;13.80;99.90;;;;;;5033416;28;20029;-74
2023/10/24 03:31:06;;;;;;;7.45;3.80;;;13.70;99.90;;;;;;5033534;28;20478;-75
2023/10/24 03:33:32;;;;;;;4.03;3.63;;;13.70;99.90;;;;;;5033116;28;20048;-74
2023/10/24 03:35:59;;;;;;;5.97;4.00;;;13.60;99.90;;;;;;5032870;28;20032;-75
2023/10/24 03:38:26;;;;;;;7.35;3.70;;;13.70;99.90;;;;;;5033017;28;20058;-74
2023/10/24 03:40:53;;;;;;;5.03;4.53;;;13.70;99.90;;;;;;5033141;28;20033;-75
2023/10/24 03:43:20;;;;;;;6.70;3.78;;;13.70;99.90;;;;;;5031860;28;20021;-75
2023/10/24 03:45:45;;;;;;;5.53;4.10;;;13.60;99.90;;;;;;5033066;28;20088;-75
2023/10/24 03:48:12;;;;;;;7.10;4.05;;;13.60;99.90;;;;;;5032792;28;20029;-75
2023/10/24 03:50:39;;;;;;;5.60;4.15;;;13.60;99.90;;;;;;5033079;28;20030;-75
2023/10/24 03:53:05;;;;;;;4.55;3.95;;;13.70;99.90;;;;;;5033025;28;20528;-75
2023/10/24 03:55:32;;;;;;;4.25;3.85;;;13.70;99.90;;;;;;5033108;28;20429;-75
2023/10/24 03:57:58;;;;;;;4.05;3.70;;;13.70;99.90;;;;;;5033219;28;20026;-76
2023/10/24 04:00:24;;;;;;;4.13;3.47;;;13.60;99.90;;;;;;5032927;28;20041;-75
2023/10/24 04:02:53;;;;;;;5.93;3.97;;;13.60;99.90;;;;;;5033205;28;20052;-75
2023/10/24 04:05:20;;;;;;;3.53;3.20;;;13.50;99.90;;;;;;5032333;28;20026;-74
2023/10/24 04:07:46;;;;;;;4.25;3.10;;;13.50;99.90;;;;;;5033147;28;20045;-74
2023/10/24 04:10:12;;;;;;;2.83;2.63;;;13.40;99.90;;;;;;5032978;28;20029;-74
2023/10/24 04:12:38;;;;;;;4.78;2.92;;;13.40;99.90;;;;;;5032841;28;20029;-74
2023/10/24 04:15:05;;;;;;;3.47;2.85;;;13.50;99.90;;;;;;5032865;28;20034;-74
2023/10/24 04:17:32;;;;;;;3.78;2.60;;;13.50;99.90;;;;;;5032912;28;20030;-74
2023/10/24 04:19:58;;;;;;;3.55;2.70;;;13.50;99.90;;;;;;5032879;28;20064;-74
2023/10/24 04:22:23;;;;;;;3.00;2.70;;;13.60;99.90;;;;;;5032752;28;20092;-74
2023/10/24 04:24:49;;;;;;;2.75;2.55;;;13.50;99.90;;;;;;5032760;28;20033;-74
2023/10/24 04:27:15;;;;;;;3.50;2.90;;;13.50;99.90;;;;;;5032659;28;20041;-74
2023/10/24 04:29:42;;;;;;;3.60;2.80;;;13.50;99.90;;;;;;5032717;28;20395;-74
2023/10/24 04:32:07;;;;;;;3.35;2.38;;;13.50;99.90;;;;;;5031484;28;20033;-74
2023/10/24 04:34:33;;;;;;;3.63;2.58;;;13.50;99.90;;;;;;5033955;28;20029;-73
2023/10/24 04:37:00;;;;;;;2.80;2.60;;;13.40;99.90;;;;;;5018637;28;20037;-73
2023/10/24 04:39:26;;;;;;;2.72;2.35;;;13.40;99.90;;;;;;5036177;28;20060;-74
2023/10/24 04:41:52;;;;;;;2.80;2.47;;;13.40;99.90;;;;;;5036337;28;20045;-73
2023/10/24 04:44:18;;;;;;;3.40;3.10;;;13.30;99.90;;;;;;5036306;28;20034;-73
2023/10/24 04:46:44;;;;;;;3.88;2.85;;;13.30;99.90;;;;;;5018557;28;20034;-73
2023/10/24 04:49:09;;;;;;;3.60;2.42;;;13.30;99.90;;;;;;5034633;28;20044;-74
2023/10/24 04:51:35;;;;;;;4.10;3.50;;;13.40;99.90;;;;;;5002255;28;20477;-74
2023/10/24 04:54:00;;;;;;;4.65;3.65;;;13.40;99.90;;;;;;5036160;28;20033;-73
2023/10/24 04:56:26;;;;;;;2.95;2.65;;;13.40;99.90;;;;;;5035013;28;20523;-74
2023/10/24 04:58:54;;;;;;;3.55;3.05;;;13.30;99.90;;;;;;5034551;28;20040;-74
2023/10/24 05:01:20;;;;;;;6.40;3.08;;;13.40;99.90;;;;;;5035383;28;20053;-74
2023/10/24 05:03:46;;;;;;;3.85;3.25;;;13.40;99.90;;;;;;5034391;28;20045;-74
2023/10/24 05:06:12;;;;;;;4.78;3.25;;;13.40;99.90;;;;;;5035270;28;20057;-74
2023/10/24 05:08:38;;;;;;;4.82;3.67;;;13.40;99.90;;;;;;5035535;28;20041;-74
2023/10/24 05:11:04;;;;;;;4.55;3.50;;;13.40;99.90;;;;;;5035471;28;20044;-75
2023/10/24 05:13:30;;;;;;;9.23;3.67;;;13.40;99.90;;;;;;5034190;28;20030;-75
2023/10/24 05:15:55;;;;;;;5.50;3.88;;;13.50;99.90;;;;;;5034908;28;20060;-75
2023/10/24 05:18:21;;;;;;;5.35;3.58;;;13.50;99.90;;;;;;5035421;28;20097;-76
2023/10/24 05:20:47;;;;;;;6.93;3.85;;;13.50;99.90;;;;;;5034077;28;20041;-75
2023/10/24 05:23:12;;;;;;;5.55;3.58;;;13.40;99.90;;;;;;5034502;28;20034;-74
2023/10/24 05:25:38;;;;;;;5.78;4.10;;;13.40;99.90;;;;;;5035003;28;20103;-75
2023/10/24 05:28:04;;;;;;;5.47;4.38;;;13.30;99.90;;;;;;5035576;28;20025;-74
2023/10/24 05:30:30;;;;;;;6.43;3.92;;;13.30;99.90;;;;;;5035369;28;20029;-74
2023/10/24 05:32:58;;;;;;;9.20;3.95;;;13.40;99.90;;;;;;5034892;28;20112;-73
2023/10/24 05:35:23;;;;;;;6.75;4.00;;;13.30;99.90;;;;;;5034756;28;20444;-74
2023/10/24 05:37:49;;;;;;;5.28;4.28;;;13.30;99.90;;;;;;5035075;28;20503;-74
2023/10/24 05:40:15;;;;;;;5.93;4.43;;;13.30;99.90;;;;;;5035337;28;20136;-75
2023/10/24 05:42:41;;;;;;;4.88;4.35;;;13.30;99.90;;;;;;5034679;28;20500;-74
2023/10/24 05:45:08;;;;;;;6.72;4.57;;;13.30;99.90;;;;;;5034563;28;20032;-74
2023/10/24 05:47:33;;;;;;;6.13;5.00;;;13.30;99.90;;;;;;5034301;28;20072;-74
2023/10/24 05:49:59;;;;;;;6.30;4.85;;;13.30;99.90;;;;;;5035090;28;20462;-75
2023/10/24 05:52:25;;;;;;;5.47;4.97;;;13.30;99.90;;;;;;5034738;28;20029;-74
2023/10/24 05:54:52;;;;;;;6.45;4.75;;;13.30;99.90;;;;;;5033327;28;20045;-74
2023/10/24 05:57:17;;;;;;;5.68;4.53;;;13.30;99.90;;;;;;5035423;28;20038;-74
2023/10/24 05:59:43;;;;;;;5.97;4.75;;;13.20;99.90;;;;;;5034645;28;20076;-73
2023/10/24 06:02:08;;;;;;;5.90;4.90;;;13.20;99.90;;;;;;5034554;28;20075;-74
2023/10/24 06:04:34;;;;;;;6.53;5.18;;;13.20;99.90;;;;;;5034541;28;20041;-73
2023/10/24 06:07:00;;;;;;;6.95;5.47;;;13.20;99.90;;;;;;5034248;28;20030;-74
2023/10/24 06:09:26;;;;;;;6.00;4.95;;;13.20;99.90;;;;;;5033524;28;20120;-73
2023/10/24 06:11:52;;;;;;;7.68;5.10;;;13.20;99.90;;;;;;5023809;28;20109;-75
2023/10/24 06:14:18;;;;;;;5.90;4.80;;;13.20;99.90;;;;;;5025741;28;20469;-75
2023/10/24 06:16:43;;;;;;;6.10;4.65;;;13.20;99.90;;;;;;5033407;28;20529;-76
2023/10/24 06:19:09;;;;;;;5.95;5.20;;;13.20;99.90;;;;;;5028832;28;20034;-75
2023/10/24 06:21:35;;;;;;;7.30;5.40;;;13.30;99.90;;;;;;5033573;28;20151;-76
2023/10/24 06:24:00;;;;;;;5.95;4.88;;;13.30;99.90;;;;;;5032094;28;20041;-75
2023/10/24 06:26:26;;;;;;;6.43;4.65;;;13.30;99.90;;;;;;5033655;28;20112;-74
2023/10/24 06:28:52;;;;;;;6.38;5.03;;;13.30;99.90;;;;;;5032786;28;20040;-76
2023/10/24 06:31:17;;;;;;;6.22;5.10;;;13.40;99.90;;;;;;5033207;28;20067;-75
2023/10/24 06:33:43;;;;;;;6.60;5.05;;;13.30;99.90;;;;;;5033569;28;20069;-76
2023/10/24 06:36:09;;;;;;;5.40;4.90;;;13.40;99.90;;;;;;5031523;28;20123;-76
2023/10/24 06:38:35;;;;;;;5.72;5.22;;;13.30;99.90;;;;;;5030042;28;20057;-75
2023/10/24 06:41:01;;;;;;;5.07;4.57;;;13.30;99.90;;;;;;5031941;28;20043;-75
2023/10/24 06:43:26;;;;;;;5.80;4.97;;;13.40;99.90;;;;;;5031232;28;20037;-75
2023/10/24 06:45:52;;;;;;;7.47;5.30;;;13.40;99.90;;;;;;5031755;28;20026;-75
2023/10/24 06:48:18;;;;;;;4.90;4.43;;;13.40;99.90;;;;;;5029849;28;20481;-77
2023/10/24 06:50:44;;;;;;;5.25;4.75;;;13.30;99.90;;;;;;5030900;28;20118;-76
2023/10/24 06:53:11;;;;;;;5.75;4.68;;;13.40;99.90;;;;;;5031400;28;20108;-75
2023/10/24 06:55:37;;;;;;;6.53;4.70;;;13.40;99.90;;;;;;5030923;28;20048;-78
2023/10/24 06:58:04;;;;;;;4.07;3.67;;;13.40;99.90;;;;;;5028445;28;20506;-79
2023/10/24 07:00:30;;;;;;;5.40;4.30;;;13.40;99.90;;;;;;5033074;28;20069;-78
2023/10/24 07:02:55;;;;;;;4.68;3.92;;;13.40;99.90;;;;;;5031765;28;20443;-77
2023/10/24 07:05:21;;;;;;;5.60;3.13;;;13.40;99.90;;;;;;5032166;28;20104;-77
2023/10/24 07:07:47;;;;;;;5.85;4.30;;;13.50;99.90;;;;;;5033287;28;20036;-77
2023/10/24 07:10:13;;;;;;;3.75;3.45;;;13.50;99.90;;;;;;5032159;28;20458;-76
2023/10/24 07:12:38;;;;;;;2.92;2.70;;;13.50;99.90;;;;;;5032230;28;20025;-77
2023/10/24 07:15:04;;;;;;;3.20;2.90;;;13.50;99.90;;;;;;5031774;28;20520;-76
2023/10/24 07:17:31;;;;;;;4.45;2.83;;;13.60;99.90;;;;;;5032827;28;20044;-77
2023/10/24 07:19:58;;;;;;;7.95;3.67;;;13.50;99.90;;;;;;5033297;28;20026;-76
2023/10/24 07:22:24;;;;;;;12.25;4.57;;;13.60;99.90;;;;;;5032476;28;20030;-77
2023/10/24 07:24:50;;;;;;;11.07;4.70;;;13.50;99.90;;;;;;5033197;28;20069;-77
2023/10/24 07:27:16;;;;;;;6.00;3.28;;;13.50;99.90;;;;;;5033441;28;20083;-77
2023/10/24 07:29:41;;;;;;;4.47;2.63;;;13.60;99.90;;;;;;5031026;28;20041;-77
2023/10/24 07:32:07;;;;;;;10.15;3.60;;;13.60;99.90;;;;;;5024757;28;20389;-78
2023/10/24 07:34:33;;;;;;;5.63;3.17;;;13.70;99.90;;;;;;5027323;28;20033;-77
2023/10/24 07:36:59;;;;;;;5.10;3.00;;;13.80;99.90;;;;;;5031259;28;20037;-76
2023/10/24 07:39:25;;;;;;;7.80;3.47;;;13.80;99.90;;;;;;5031788;28;20055;-77
2023/10/24 07:41:51;;;;;;;3.30;2.55;;;13.70;99.90;;;;;;5032717;28;20099;-76
2023/10/24 07:44:18;;;;;;;4.15;3.10;;;13.80;99.90;;;;;;5032979;28;20029;-76
2023/10/24 07:46:43;;;;;;;7.05;3.25;;;13.80;99.90;;;;;;5031863;28;20544;-75
2023/10/24 07:49:09;;;;;;;2.90;2.50;;;13.70;99.90;;;;;;5032717;28;20169;-76
2023/10/24 07:51:35;;;;;;;3.35;2.70;;;13.70;99.90;;;;;;5014771;28;20046;-76
2023/10/24 07:54:01;;;;;;;6.63;3.00;;;13.70;99.90;;;;;;5031829;28;20048;-76
2023/10/24 07:56:27;;;;;;;4.82;2.83;;;13.60;99.90;;;;;;5031018;28;20026;-78
2023/10/24 07:58:53;;;;;;;5.90;2.92;;;13.60;99.90;;;;;;5031673;28;20489;-74
2023/10/24 08:01:18;;;;;;;5.15;2.90;;;13.60;99.90;;;;;;5031150;28;20065;-74
2023/10/24 08:03:44;;;;;;;7.95;3.05;;;13.60;99.90;;;;;;5028825;28;20069;-77
2023/10/24 08:06:11;;;;;;;4.05;3.00;;;13.60;99.90;;;;;;5027638;28;20030;-77
2023/10/24 08:08:37;;;;;;;3.47;3.13;;;13.50;99.90;;;;;;5033420;28;20029;-74
2023/10/24 08:11:02;;;;;;;6.72;3.20;;;13.50;99.90;;;;;;5035106;28;20079;-75
2023/10/24 08:13:28;;;;;;;5.22;4.22;;;13.50;99.90;;;;;;5017353;28;20532;-74
2023/10/24 08:15:58;;;;;;;5.97;4.15;;;13.50;99.90;;;;;;5035230;28;20492;-76
2023/10/24 08:18:26;;;;;;;5.20;4.32;;;13.50;99.90;;;;;;5333726;22;20557;-78
2023/10/24 08:20:53;;;;;;;4.70;4.10;;;13.50;99.90;;;;;;5006597;28;20046;-81
2023/10/24 08:23:18;;;;;;;7.53;4.00;;;13.50;99.90;;;;;;5014469;28;20112;-80
2023/10/24 08:25:44;;;;;;;5.70;4.10;;;13.50;99.90;;;;;;5013499;28;20125;-80
2023/10/24 08:28:10;;;;;;;6.93;4.20;;;13.50;99.90;;;;;;5010323;28;20069;-79
2023/10/24 08:30:35;;;;;;;6.03;4.03;;;13.50;99.90;;;;;;5014939;28;20038;-81
2023/10/24 08:33:01;;;;;;;5.10;4.05;;;13.60;99.90;;;;;;5015168;28;20030;-82
2023/10/24 08:35:28;;;;;;;6.18;4.10;;;13.60;99.90;;;;;;5013084;28;20030;-81
2023/10/24 08:37:54;;;;;;;4.05;3.65;;;13.60;99.90;;;;;;5013964;28;20049;-79
2023/10/24 08:40:20;;;;;;;5.80;4.25;;;13.60;99.90;;;;;;5014861;28;20042;-80
2023/10/24 08:42:46;;;;;;;5.35;4.25;;;13.70;99.90;;;;;;5015031;28;20030;-79
2023/10/24 08:45:16;;;;;;;5.25;4.30;;;13.80;99.90;;;;;;5014285;28;20417;-80
2023/10/24 08:47:43;;;;;;;6.97;4.40;;;13.80;99.90;;;;;;5012495;28;20056;-79
2023/10/24 08:50:09;;;;;;;5.05;4.18;;;13.80;99.90;;;;;;5012650;28;20037;-80
2023/10/24 08:52:35;;;;;;;6.35;4.70;;;13.80;99.90;;;;;;5010736;28;20113;-80
2023/10/24 08:55:04;;;;;;;5.88;4.45;;;13.90;99.90;;;;;;4996440;28;20117;-81
2023/10/24 08:57:41;;;;;;;6.28;4.20;;;13.90;99.90;;;;;;5013136;28;20112;-82
2023/10/24 09:00:12;;;;;;;6.95;4.40;;;13.90;99.90;;;;;;5010583;28;20545;-81
2023/10/24 09:02:41;;;;;;;5.18;4.68;;;13.90;99.90;;;;;;5012897;28;20510;-82
2023/10/24 09:05:09;;;;;;;6.00;4.40;;;13.90;99.90;;;;;;4994170;28;20117;-79
2023/10/24 09:07:36;;;;;;;5.45;4.47;;;13.90;99.90;;;;;;5007899;28;20033;-79
2023/10/24 09:10:01;;;;;;;5.43;4.38;;;13.90;99.90;;;;;;5006796;28;20033;-81
2023/10/24 09:12:31;;;;;;;7.95;5.10;;;14.00;99.90;;;;;;5008931;28;20141;-78
2023/10/24 09:14:58;;;;;;;6.93;5.25;;;14.00;99.90;;;;;;5010913;28;20052;-82
2023/10/24 09:17:24;;;;;;;6.35;4.53;;;14.00;99.90;;;;;;5013152;28;20034;-81
2023/10/24 09:19:51;;;;;;;6.60;5.20;;;14.00;99.90;;;;;;5009717;28;20144;-81
2023/10/24 09:22:17;;;;;;;7.95;4.80;;;14.10;99.90;;;;;;5010625;28;20116;-81
2023/10/24 09:24:45;;;;;;;7.22;4.88;;;14.10;99.90;;;;;;5012465;28;20041;-81
2023/10/24 09:27:10;;;;;;;7.18;5.00;;;14.10;99.90;;;;;;5011491;28;20022;-81
2023/10/24 09:29:37;;;;;;;8.02;5.15;;;14.10;99.90;;;;;;5011184;28;20379;-80
2023/10/24 09:32:03;;;;;;;6.70;5.15;;;14.10;99.90;;;;;;5012708;28;20079;-80
2023/10/24 09:34:29;;;;;;;6.70;4.75;;;14.20;99.90;;;;;;5014424;28;20093;-82
2023/10/24 09:37:10;;;;;;;9.35;5.03;;;14.10;99.90;;;;;;5012804;28;20030;-81
2023/10/24 09:39:54;;;;;;;6.55;5.30;;;14.20;99.90;;;;;;4994198;28;20034;-80
2023/10/24 09:42:28;;;;;;;7.35;4.72;;;14.10;99.90;;;;;;5006393;28;20115;-75
2023/10/24 09:44:55;;;;;;;15.52;6.43;;;14.20;99.90;;;;;;5012090;28;20108;-78
2023/10/24 09:47:22;;;;;;;8.10;5.35;;;14.30;99.90;;;;;;5011401;28;20069;-80
2023/10/24 09:49:55;;;;;;;6.00;4.43;;;14.30;99.90;;;;;;5009928;28;20034;-81
2023/10/24 09:52:23;;;;;;;6.72;4.70;;;14.40;99.90;;;;;;5008822;28;20116;-81
2023/10/24 09:54:50;;;;;;;6.85;4.65;;;14.50;99.90;;;;;;5011064;28;20257;-80
2023/10/24 09:57:26;;;;;;;6.40;4.28;;;14.50;99.90;;;;;;5011194;28;20076;-81
2023/10/24 09:59:54;;;;;;;5.25;4.40;;;14.60;99.90;;;;;;5008044;28;20394;-76
2023/10/24 10:02:23;;;;;;;5.82;4.13;;;14.60;99.90;;;;;;5008799;28;20117;-80
2023/10/24 10:04:49;;;;;;;4.78;4.28;;;14.70;99.90;;;;;;5008206;28;20060;-79
2023/10/24 10:07:18;;;;;;;5.55;4.50;;;14.80;99.90;;;;;;5010622;28;20026;-82
2023/10/24 10:09:47;;;;;;;4.40;3.50;;;14.80;99.90;;;;;;5009833;28;20035;-83
2023/10/24 10:12:13;;;;;;;5.07;3.45;;;14.80;99.90;;;;;;5013322;28;20469;-80
2023/10/24 10:15:14;;;;;;;6.03;3.47;;;14.80;99.90;;;;;;5006024;28;20101;-82
2023/10/24 10:17:45;;;;;;;4.80;2.78;;;14.80;99.90;;;;;;5015836;28;20029;-81
2023/10/24 10:20:36;;;;;;;6.30;3.33;;;14.80;99.90;;;;;;5015641;28;20034;-82
2023/10/24 10:23:35;;;;;;;4.40;2.83;;;14.70;99.90;;;;;;5015498;28;20037;-81
2023/10/24 10:26:20;;;;;;;4.18;2.95;;;14.60;99.90;;;;;;5014663;28;20106;-82
2023/10/24 10:29:24;;;;;;;3.45;2.90;;;14.60;99.90;;;;;;5014905;28;20084;-82
2023/10/24 10:31:52;;;;;;;4.03;2.95;;;14.50;99.90;;;;;;5001057;28;20049;-83
2023/10/24 10:34:18;;;;;;;3.97;2.88;;;14.50;99.90;;;;;;5014218;28;20033;-83
2023/10/24 10:36:57;;;;;;;3.45;2.70;;;14.50;99.90;;;;;;5014016;28;20025;-83
2023/10/24 10:39:23;;;;;;;3.03;2.40;;;14.50;99.90;;;;;;5014303;28;20030;-83
2023/10/24 10:41:49;;;;;;;3.83;2.17;;;14.50;99.90;;;;;;5012735;28;20046;-82
2023/10/24 10:44:36;;;;;;;5.00;2.80;;;14.60;99.90;;;;;;5014381;28;20076;-83
2023/10/24 10:47:03;;;;;;;5.40;2.70;;;14.70;99.90;;;;;;5014629;28;20400;-84
2023/10/24 10:49:50;;;;;;;5.00;2.40;;;14.80;99.90;;;;;;5014215;28;20041;-84
2023/10/24 10:52:45;;;;;;;5.20;3.08;;;14.80;99.90;;;;;;4998720;28;20022;-83
2023/10/24 10:55:53;;;;;;;5.78;2.72;;;14.80;99.90;;;;;;5012977;28;20116;-83
2023/10/24 10:58:50;;;;;;;5.38;3.22;;;14.70;99.90;;;;;;5013959;28;20413;-83
2023/10/24 11:01:33;;;;;;;3.95;2.63;;;14.80;99.90;;;;;;5012636;28;20087;-82
2023/10/24 11:03:59;;;;;;;4.53;2.95;;;14.70;99.90;;;;;;5012764;28;20029;-82
2023/10/24 11:06:27;;;;;;;3.90;3.42;;;14.70;99.90;;;;;;5013177;28;20041;-83
2023/10/24 11:09:11;;;;;;;5.38;3.20;;;14.70;99.90;;;;;;5012035;28;20026;-83
2023/10/24 11:11:37;;;;;;;4.68;3.15;;;14.70;99.90;;;;;;5013550;28;20026;-83
2023/10/24 11:14:17;;;;;;;8.15;3.10;;;14.70;99.90;;;;;;5013613;28;20049;-83
2023/10/24 11:16:43;;;;;;;5.30;3.72;;;14.70;99.90;;;;;;5013980;28;20112;-83
2023/10/24 11:19:20;;;;;;;4.70;3.08;;;14.70;99.90;;;;;;5011905;28;20053;-84
2023/10/24 11:21:48;;;;;;;4.82;3.13;;;14.70;99.90;;;;;;5013359;28;20038;-83
2023/10/24 11:24:20;;;;;;;5.57;3.10;;;14.80;99.90;;;;;;5013506;28;20026;-83
2023/10/24 11:26:55;;;;;;;4.25;2.72;;;14.70;99.90;;;;;;5012227;28;20049;-84
2023/10/24 11:29:21;;;;;;;5.85;3.50;;;14.80;99.90;;;;;;4996297;28;20064;-84
2023/10/24 11:31:48;;;;;;;5.07;3.00;;;14.80;99.90;;;;;;5012155;28;20117;-84
2023/10/24 11:34:15;;;;;;;5.85;3.10;;;14.90;99.90;;;;;;5012315;28;20121;-84
2023/10/24 11:36:41;;;;;;;6.28;3.30;;;14.80;99.90;;;;;;5013157;28;20429;-84
2023/10/24 11:39:08;;;;;;;5.82;3.50;;;14.80;99.90;;;;;;5012236;28;20437;-84
2023/10/24 11:41:35;;;;;;;7.63;4.00;;;14.80;99.90;;;;;;5013231;28;20069;-84
2023/10/24 11:44:01;;;;;;;5.38;3.40;;;14.70;99.90;;;;;;5012856;28;20076;-83
2023/10/24 11:46:27;;;;;;;4.75;3.42;;;14.70;99.90;;;;;;5011890;28;20061;-83
2023/10/24 11:48:52;;;;;;;5.05;3.00;;;14.70;99.90;;;;;;5012171;28;20493;-83
2023/10/24 11:51:18;;;;;;;5.68;3.38;;;14.80;99.90;;;;;;5012107;28;20036;-83
2023/10/24 11:53:44;;;;;;;6.43;3.05;;;14.80;99.90;;;;;;5013379;28;20528;-82
2023/10/24 11:56:10;;;;;;;4.13;3.50;;;14.80;99.90;;;;;;4995664;28;20121;-82
2023/10/24 11:58:36;;;;;;;5.03;3.22;;;14.70;99.90;;;;;;5013098;28;20057;-82
2023/10/24 12:01:02;;;;;;;4.70;2.83;;;14.70;99.90;;;;;;5012430;28;20038;-83
2023/10/24 12:03:47;;;;;;;5.40;2.80;;;14.60;99.90;;;;;;5013155;28;20058;-83
2023/10/24 12:06:16;;;;;;;4.60;2.65;;;14.60;99.90;;;;;;5011557;28;20096;-82
2023/10/24 12:08:43;;;;;;;5.10;2.25;;;14.60;99.90;;;;;;5011695;28;20030;-84
2023/10/24 12:11:10;;;;;;;2.10;1.90;;;14.50;99.90;;;;;;5013245;28;20049;-82
2023/10/24 12:13:36;;;;;;;2.83;2.10;;;14.50;99.90;;;;;;5011910;28;20026;-82
2023/10/24 12:16:02;;;;;;;3.53;2.70;;;14.40;99.90;;;;;;5011732;28;20033;-83
2023/10/24 12:18:29;;;;;;;5.18;2.70;;;14.40;99.90;;;;;;5011771;28;20061;-81
2023/10/24 12:20:55;;;;;;;5.03;2.40;;;14.40;99.90;;;;;;5011065;28;20795;-83
2023/10/24 12:23:23;;;;;;;3.65;1.60;;;14.40;99.90;;;;;;4995303;28;20033;-83
2023/10/24 12:25:49;;;;;;;3.30;1.70;;;14.40;99.90;;;;;;5011858;28;20113;-81
2023/10/24 12:28:15;;;;;;;2.45;1.30;;;14.40;99.90;;;;;;5011751;28;20064;-82
2023/10/24 12:30:41;;;;;;;2.40;1.40;;;14.40;99.90;;;;;;5011634;28;20034;-82
2023/10/24 12:33:06;;;;;;;2.97;1.60;;;14.50;99.90;;;;;;4995399;28;20394;-82
2023/10/24 12:35:32;;;;;;;3.30;2.00;;;14.40;99.90;;;;;;4995035;28;20034;-81
2023/10/24 12:37:58;;;;;;;3.47;1.65;;;14.40;99.90;;;;;;5012917;28;20026;-82
2023/10/24 12:40:24;;;;;;;4.43;2.08;;;14.40;99.90;;;;;;5012593;28;20034;-81
2023/10/24 12:42:50;;;;;;;2.90;1.70;;;14.30;99.90;;;;;;5012743;28;20045;-82
2023/10/24 12:45:16;;;;;;;4.32;1.55;;;14.30;99.90;;;;;;5013137;28;20030;-85
2023/10/24 12:47:42;;;;;;;3.42;1.65;;;14.30;99.90;;;;;;4995493;28;20030;-82